Time;durP1;ratioP1;P1;durP2;ratioP2;P2;SDS_P1;SDS_P2;PMS_P1;PMS_P2;Temp;Humidity;BMP_temperature;BMP_pressure;BME280_temperature;BME280_humidity;BME280_pressure;Samples;Min_cycle;Max_cycle;Signal;HPM_P1;HPM_P2
2023/04/24 00:02:16;;;;;;;0.10;0.10;;;;;;;9.74;100.00;99563.91;4908357;29;20249;-83
2023/04/24 00:04:46;;;;;;;0.10;0.10;;;;;;;9.81;100.00;99570.94;4908283;29;20307;-83
2023/04/24 00:07:16;;;;;;;0.10;0.10;;;;;;;9.77;100.00;99577.97;4914862;29;20282;-84
2023/04/24 00:09:44;;;;;;;0.10;0.10;;;;;;;9.87;100.00;99586.75;4913646;29;20239;-83
2023/04/24 00:12:12;;;;;;;0.10;0.10;;;;;;;9.90;100.00;99590.28;4910975;29;20239;-84
2023/04/24 00:14:39;;;;;;;0.10;0.10;;;;;;;9.86;100.00;99591.16;4895752;29;20287;-83
2023/04/24 00:17:07;;;;;;;0.10;0.10;;;;;;;9.94;100.00;99593.78;4895242;29;20238;-84
2023/04/24 00:19:34;;;;;;;0.10;0.10;;;;;;;9.95;100.00;99593.78;4910967;29;20287;-84
2023/04/24 00:22:03;;;;;;;0.10;0.10;;;9.80;99.90;;;10.00;100.00;99607.00;4892598;29;20710;-84
2023/04/24 00:24:31;;;;;;;0.10;0.10;;;;;;;10.03;100.00;99593.78;4893174;29;20243;-83
2023/04/24 00:27:00;;;;;;;0.10;0.10;;;;;;;10.16;100.00;99598.16;4911839;29;20243;-83
2023/04/24 00:29:28;;;;;;;0.10;0.10;;;;;;;10.22;100.00;99605.22;4892744;29;20232;-83
2023/04/24 00:31:56;;;;;;;0.10;0.10;;;;;;;10.27;100.00;99606.94;4895978;29;20265;-84
2023/04/24 00:34:23;;;;;;;0.10;0.10;;;;;;;10.31;100.00;99597.25;4895777;29;20226;-84
2023/04/24 00:36:52;;;;;;;0.10;0.10;;;;;;;10.37;100.00;99594.59;4904765;29;20237;-83
2023/04/24 00:39:19;;;;;;;0.10;0.10;;;10.20;99.90;;;10.43;100.00;99581.38;4908357;29;20236;-84
2023/04/24 00:41:47;;;;;;;0.10;0.10;;;;;;;10.45;100.00;99590.19;4910245;29;20242;-83
2023/04/24 00:44:15;;;;;;;0.10;0.10;;;;;;;10.48;100.00;99571.66;4908974;29;20247;-83
2023/04/24 00:46:43;;;;;;;0.10;0.10;;;;;;;10.54;100.00;99562.84;4903455;29;20235;-83
2023/04/24 00:49:11;;;;;;;0.10;0.10;;;;;;;10.54;100.00;99561.06;4913115;29;20238;-83
2023/04/24 00:51:40;;;;;;;0.17;0.17;;;;;;;10.52;100.00;99559.31;4889522;29;20255;-84
2023/04/24 00:54:08;;;;;;;0.13;0.13;;;;;;;10.44;100.00;99551.41;4913219;29;20231;-84
2023/04/24 00:56:35;;;;;;;0.00;0.00;;;;;;;10.42;100.00;99539.09;4910432;29;20683;-84
2023/04/24 00:59:04;;;;;;;0.10;0.10;;;;;;;10.42;100.00;99536.47;4894106;29;20262;-83
2023/04/24 01:01:32;;;;;;;0.10;0.10;;;;;;;10.39;100.00;99534.69;4913663;29;20242;-81
2023/04/24 01:04:00;;;;;;;0.10;0.10;;;;;;;10.42;100.00;99547.03;4896211;29;20318;-81
2023/04/24 01:06:30;;;;;;;0.10;0.10;;;10.20;99.90;;;10.39;100.00;99541.72;4889675;29;20266;-81
2023/04/24 01:09:00;;;;;;;0.10;0.10;;;10.10;99.90;;;10.37;100.00;99543.50;4907827;29;20651;-82
2023/04/24 01:11:27;;;;;;;0.10;0.10;;;;;;;10.34;100.00;99544.38;4885685;29;20266;-83
2023/04/24 01:13:55;;;;;;;0.10;0.10;;;;;;;10.40;100.00;99554.06;4902378;29;20240;-82
2023/04/24 01:16:22;;;;;;;0.10;0.10;;;;;;;10.39;100.00;99555.81;4891009;29;20231;-82
2023/04/24 01:18:51;;;;;;;0.25;0.25;;;;;;;10.40;100.00;99573.47;4884346;29;20243;-82
2023/04/24 01:21:18;;;;;;;0.10;0.10;;;;;;;10.46;100.00;99570.78;4907606;29;20223;-83
2023/04/24 01:23:46;;;;;;;0.10;0.10;;;;;;;10.50;100.00;99577.81;4895985;29;20313;-83
2023/04/24 01:26:19;;;;;;;0.10;0.10;;;10.30;99.90;;;10.54;100.00;99571.63;4879886;29;20261;-83
2023/04/24 01:28:47;;;;;;;0.10;0.10;;;;;;;10.52;100.00;99576.06;4912769;29;20250;-83
2023/04/24 01:31:15;;;;;;;0.10;0.10;;;10.30;99.90;;;10.53;100.00;99569.88;4912383;29;20785;-83
2023/04/24 01:33:43;;;;;;;0.10;0.10;;;10.30;99.90;;;10.54;100.00;99582.22;4898442;29;20298;-82
2023/04/24 01:36:11;;;;;;;0.10;0.10;;;10.30;99.90;;;10.58;100.00;99593.66;4910839;29;20302;-83
2023/04/24 01:38:39;;;;;;;0.10;0.10;;;;;;;10.60;100.00;99589.25;4916409;29;20266;-82
2023/04/24 01:41:06;;;;;;;0.10;0.10;;;;;;;10.57;100.00;99595.41;4890698;29;20310;-83
2023/04/24 01:43:34;;;;;;;0.10;0.10;;;;;;;10.60;100.00;99591.88;4911640;29;20610;-82
2023/04/24 01:46:02;;;;;;;0.13;0.13;;;;;;;10.64;100.00;99600.69;4893587;29;20293;-82
2023/04/24 01:48:30;;;;;;;0.10;0.10;;;;;;;10.66;100.00;99599.78;4912965;29;20681;-82
2023/04/24 01:50:58;;;;;;;0.10;0.10;;;;;;;10.65;100.00;99608.59;4892799;29;20239;-82
2023/04/24 01:53:25;;;;;;;0.00;0.00;;;;;;;10.64;100.00;99598.91;4913395;29;20246;-83
2023/04/24 01:55:53;;;;;;;0.13;0.13;;;;;;;10.66;100.00;99593.63;4916059;29;20231;-83
2023/04/24 01:58:20;;;;;;;0.10;0.10;;;;;;;10.69;100.00;99604.19;4915873;29;20672;-83
2023/04/24 02:00:48;;;;;;;0.10;0.10;;;;;;;10.70;100.00;99608.59;4903490;29;20254;-83
2023/04/24 02:03:15;;;;;;;0.10;0.10;;;;;;;10.73;100.00;99611.22;4913370;29;20238;-83
2023/04/24 02:05:46;;;;;;;0.30;0.30;;;10.50;99.90;;;10.72;100.00;99614.75;4907498;29;20250;-83
2023/04/24 02:08:13;;;;;;;0.10;0.10;;;;;;;10.71;100.00;99616.50;4907530;29;20239;-83
2023/04/24 02:10:41;;;;;;;0.10;0.10;;;;;;;10.75;100.00;99623.53;4915585;29;20278;-83
2023/04/24 02:13:08;;;;;;;0.10;0.10;;;;;;;10.75;100.00;99628.81;4911842;29;20244;-83
2023/04/24 02:15:36;;;;;;;0.10;0.10;;;;;;;10.76;100.00;99637.63;4908746;29;20240;-83
2023/04/24 02:18:04;;;;;;;0.10;0.10;;;;;;;10.73;100.00;99649.13;4910624;29;20299;-82
2023/04/24 02:20:33;;;;;;;0.10;0.10;;;;;;;10.68;100.00;99650.03;4910300;29;20311;-81
2023/04/24 02:23:01;;;;;;;0.10;0.10;;;;;;;10.65;100.00;99673.81;4912948;29;20321;-81
2023/04/24 02:25:29;;;;;;;0.10;0.10;;;;;;;10.55;100.00;99705.59;4907382;29;20238;-80
2023/04/24 02:27:56;;;;;;;0.20;0.20;;;;;;;10.54;100.00;99726.72;4914789;29;20266;-79
2023/04/24 02:30:24;;;;;;;0.10;0.10;;;;;;;10.44;100.00;99709.13;4896649;29;20242;-80
2023/04/24 02:32:52;;;;;;;0.10;0.10;;;;;;;10.30;100.00;99701.19;4919557;29;20235;-80
2023/04/24 02:35:19;;;;;;;0.10;0.10;;;;;;;10.26;100.00;99687.09;4917442;29;20239;-80
2023/04/24 02:37:47;;;;;;;0.10;0.10;;;;;;;10.27;100.00;99685.34;4916259;29;20239;-80
2023/04/24 02:40:15;;;;;;;0.10;0.10;;;;;;;10.33;100.00;99673.88;4913248;29;20231;-80
2023/04/24 02:42:42;;;;;;;0.10;0.10;;;;;;;10.27;100.00;99680.94;4917451;29;20235;-80
2023/04/24 02:45:10;;;;;;;0.10;0.10;;;;;;;10.29;100.00;99678.28;4907422;29;20238;-80
2023/04/24 02:47:37;;;;;;;0.10;0.10;;;;;;;10.29;100.00;99685.34;4907749;29;20589;-80
2023/04/24 02:50:06;;;;;;;0.10;0.10;;;;;;;10.26;100.00;99688.88;4906432;29;20323;-80
2023/04/24 02:52:34;;;;;;;0.10;0.10;;;;;;;10.21;100.00;99664.22;4912830;29;20243;-80
2023/04/24 02:55:01;;;;;;;0.10;0.10;;;;;;;10.26;100.00;99642.19;4912032;29;20247;-81
2023/04/24 02:57:29;;;;;;;0.10;0.10;;;;;;;10.17;100.00;99610.47;4911705;29;20250;-81
2023/04/24 02:59:56;;;;;;;0.10;0.10;;;;;;;10.16;100.00;99587.56;4913895;29;20287;-81
2023/04/24 03:02:24;;;;;;;0.10;0.10;;;;;;;10.21;100.00;99555.88;4912596;29;20246;-81
2023/04/24 03:04:52;;;;;;;0.10;0.10;;;;;;;10.11;100.00;99525.06;4906384;29;20274;-80
2023/04/24 03:07:20;;;;;;;0.13;0.13;;;;;;;9.99;100.00;99496.06;4908314;29;20243;-79
2023/04/24 03:09:48;;;;;;;0.10;0.10;;;;;;;9.85;100.00;99470.59;4910260;29;20245;-80
2023/04/24 03:12:17;;;;;;;0.10;0.10;;;;;;;9.82;100.00;99477.63;4916281;29;20254;-80
2023/04/24 03:14:45;;;;;;;0.10;0.10;;;;;;;9.77;100.00;99487.34;4914044;29;20269;-80
2023/04/24 03:17:12;;;;;;;0.10;0.10;;;;;;;9.72;100.00;99497.03;4893678;29;20283;-80
2023/04/24 03:19:40;;;;;;;0.10;0.10;;;;;;;9.61;100.00;99511.13;4910558;29;20235;-81
2023/04/24 03:22:09;;;;;;;0.10;0.10;;;;;;;9.58;100.00;99516.41;4911363;29;20239;-80
2023/04/24 03:24:36;;;;;;;0.10;0.10;;;;;;;9.55;100.00;99518.19;4916492;29;20237;-81
2023/04/24 03:27:04;;;;;;;0.10;0.10;;;;;;;9.47;100.00;99538.41;4901756;29;20243;-80
2023/04/24 03:29:31;;;;;;;0.10;0.10;;;9.60;99.90;;;9.54;100.00;99542.81;4914402;29;20712;-81
2023/04/24 03:31:58;;;;;;;0.10;0.10;;;;;;;9.41;100.00;99544.59;4911859;29;20315;-81
2023/04/24 03:34:26;;;;;;;0.10;0.10;;;;;;;9.37;100.00;99555.13;4907525;29;20231;-80
2023/04/24 03:36:53;;;;;;;0.10;0.10;;;;;;;9.40;100.00;99557.78;4906249;29;20342;-81
2023/04/24 03:39:21;;;;;;;0.10;0.10;;;;;;;9.28;100.00;99543.72;4902224;29;20277;-82
2023/04/24 03:41:48;;;;;;;0.10;0.10;;;;;;;9.26;100.00;99553.38;4908829;29;20282;-82
2023/04/24 03:44:16;;;;;;;0.10;0.10;;;;;;;9.26;100.00;99557.78;4915805;29;20250;-81
2023/04/24 03:46:43;;;;;;;0.10;0.10;;;;;;;9.20;100.00;99537.56;4918211;29;20389;-81
2023/04/24 03:49:11;;;;;;;0.20;0.20;;;9.00;99.90;;;9.13;100.00;99538.44;4914350;29;20600;-80
2023/04/24 03:51:38;;;;;;;0.10;0.10;;;;;;;9.31;100.00;99537.56;4920476;29;20238;-81
2023/04/24 03:54:06;;;;;;;0.20;0.20;;;;;;;9.24;100.00;99528.75;4907027;29;20257;-81
2023/04/24 03:56:33;;;;;;;0.20;0.20;;;;;;;9.15;100.00;99512.06;4913345;29;20235;-81
2023/04/24 03:59:01;;;;;;;0.20;0.20;;;;;;;9.01;100.00;99516.41;4909537;29;20255;-81
2023/04/24 04:01:28;;;;;;;0.10;0.10;;;;;;;8.96;100.00;99532.22;4895646;29;20235;-81
2023/04/24 04:03:56;;;;;;;0.10;0.10;;;;;;;8.95;100.00;99534.00;4901938;29;21019;-82
2023/04/24 04:06:39;;;;;;;0.10;0.10;;;;;;;8.89;100.00;99538.38;4881631;29;20244;-79
2023/04/24 04:09:07;;;;;;;0.10;0.10;;;;;;;8.96;100.00;99541.03;4858933;29;20276;-76
2023/04/24 04:11:35;;;;;;;0.10;0.10;;;;;;;8.90;100.00;99542.78;4872497;29;20251;-75
2023/04/24 04:14:02;;;;;;;0.10;0.10;;;;;;;9.05;100.00;99540.16;4873461;29;20239;-75
2023/04/24 04:16:30;;;;;;;0.10;0.10;;;;;;;8.97;100.00;99520.81;4874672;29;20318;-76
2023/04/24 04:18:58;;;;;;;0.10;0.10;;;;;;;8.97;100.00;99524.31;4868619;29;20265;-76
2023/04/24 04:21:26;;;;;;;0.10;0.10;;;;;;;8.76;100.00;99513.75;4870318;29;20246;-75
2023/04/24 04:23:54;;;;;;;0.10;0.10;;;;;;;8.65;100.00;99523.41;4881047;29;20233;-75
2023/04/24 04:26:25;;;;;;;0.20;0.20;;;;;;;8.71;100.00;99531.31;4865315;29;20240;-75
2023/04/24 04:28:52;;;;;;;0.10;0.10;;;8.60;99.90;;;8.88;100.00;99537.50;4873009;29;20647;-74
2023/04/24 04:31:23;;;;;;;0.10;0.10;;;8.50;99.90;;;8.79;100.00;99528.69;4871379;29;20237;-76
2023/04/24 04:33:50;;;;;;;0.10;0.10;;;;;;;8.86;100.00;99517.28;4873353;29;20359;-75
2023/04/24 04:36:18;;;;;;;0.10;0.10;;;;;;;8.85;100.00;99510.25;4865080;29;20296;-75
2023/04/24 04:38:48;;;;;;;0.10;0.10;;;;;;;8.85;100.00;99495.31;4869154;29;20323;-77
2023/04/24 04:41:17;;;;;;;0.10;0.10;;;;;;;8.84;100.00;99490.03;4877504;29;20244;-75
2023/04/24 04:43:46;;;;;;;0.10;0.10;;;;;;;8.85;100.00;99492.69;4865156;29;20665;-77
2023/04/24 04:46:13;;;;;;;0.10;0.10;;;;;;;8.80;100.00;99485.63;4887688;23;20441;-83
2023/04/24 04:48:42;;;;;;;0.13;0.13;;;8.60;99.90;;;8.83;100.00;99485.66;4907971;29;20247;-82
2023/04/24 04:51:10;;;;;;;0.10;0.10;;;;;;;8.95;100.00;99483.88;4914695;29;20231;-84
2023/04/24 04:53:37;;;;;;;0.20;0.20;;;;;;;8.95;100.00;99477.75;4912424;29;20247;-81
2023/04/24 04:56:05;;;;;;;0.20;0.20;;;9.10;99.90;;;8.98;100.00;99469.81;4915761;29;20238;-82
2023/04/24 04:58:32;;;;;;;0.10;0.10;;;;;;;9.09;100.00;99467.19;4910842;29;20276;-78
2023/04/24 05:01:00;;;;;;;0.10;0.10;;;;;;;9.18;100.00;99468.09;4913394;29;20231;-78
2023/04/24 05:03:27;;;;;;;0.10;0.10;;;;;;;9.26;100.00;99455.78;4915558;29;20239;-77
2023/04/24 05:05:55;;;;;;;0.20;0.20;;;;;;;9.28;100.00;99453.13;4918758;29;20306;-78
2023/04/24 05:08:22;;;;;;;0.15;0.15;;;;;;;9.28;100.00;99454.00;4917252;29;20235;-80
2023/04/24 05:10:55;;;;;;;0.10;0.10;;;;;;;9.30;100.00;99443.47;4914870;29;20241;-79
2023/04/24 05:13:22;;;;;;;0.10;0.10;;;;;;;9.28;100.00;99432.91;4923330;29;20273;-80
2023/04/24 05:16:02;;;;;;;0.10;0.10;;;;;;;9.16;100.00;99448.75;4920886;29;20268;-79
2023/04/24 05:18:30;;;;;;;0.10;0.10;;;;;;;9.11;100.00;99447.00;4921166;29;20239;-80
2023/04/24 05:20:57;;;;;;;0.50;0.50;;;;;;;9.14;100.00;99454.91;4916995;29;20231;-80
2023/04/24 05:23:25;;;;;;;0.10;0.10;;;;;;;9.15;100.00;99456.66;4916533;29;20236;-80
2023/04/24 05:25:52;;;;;;;0.88;0.50;;;;;;;9.21;100.00;99473.38;4924586;29;20250;-79
2023/04/24 05:28:20;;;;;;;0.10;0.10;;;;;;;9.23;100.00;99476.00;4904486;29;20302;-79
2023/04/24 05:30:48;;;;;;;0.10;0.10;;;;;;;9.24;100.00;99486.56;4922962;29;20252;-81
2023/04/24 05:33:15;;;;;;;0.20;0.20;;;;;;;9.27;100.00;99488.31;4913325;29;20617;-80
2023/04/24 05:35:46;;;;;;;0.22;0.22;;;;;;;9.19;100.00;99483.03;4918472;29;20302;-81
2023/04/24 05:38:17;;;;;;;0.10;0.10;;;;;;;9.24;100.00;99497.09;4898596;29;20269;-81
2023/04/24 05:40:45;;;;;;;0.13;0.13;;;;;;;9.36;100.00;99503.25;4918728;29;20315;-81
2023/04/24 05:43:13;;;;;;;0.10;0.10;;;;;;;9.43;100.00;99516.44;4920315;29;20337;-80
2023/04/24 05:45:40;;;;;;;0.20;0.20;;;;;;;9.47;100.00;99531.38;4919912;29;20265;-81
2023/04/24 05:48:08;;;;;;;0.10;0.10;;;;;;;9.49;100.00;99540.19;4919214;29;20227;-81
2023/04/24 05:50:35;;;;;;;0.10;0.10;;;;;;;9.51;100.00;99548.09;4917289;29;20237;-81
2023/04/24 05:53:03;;;;;;;0.10;0.10;;;;;;;9.41;100.00;99557.78;4913298;29;20921;-82
2023/04/24 05:55:31;;;;;;;0.10;0.10;;;9.20;99.90;;;9.41;100.00;99586.81;4915153;29;20668;-80
2023/04/24 05:57:59;;;;;;;0.10;0.10;;;;;;;9.39;100.00;99598.25;4919838;29;20258;-80
2023/04/24 06:00:26;;;;;;;0.10;0.10;;;10.70;99.90;;;9.39;100.00;99616.72;4919822;29;20243;-80
2023/04/24 06:02:54;;;;;;;0.10;0.10;;;;;;;9.43;100.00;99626.38;4919286;29;20231;-80
2023/04/24 06:05:22;;;;;;;0.13;0.13;;;;;;;9.42;100.00;99640.47;4919344;29;20231;-79
2023/04/24 06:07:49;;;;;;;0.10;0.10;;;;;;;9.44;100.00;99662.47;4918331;29;20231;-80
2023/04/24 06:10:17;;;;;;;0.10;0.10;;;;;;;9.36;100.00;99674.75;4905131;29;20273;-80
2023/04/24 06:12:44;;;;;;;0.10;0.10;;;;;;;9.35;100.00;99709.94;4914424;29;20239;-80
2023/04/24 06:15:12;;;;;;;0.10;0.10;;;;;;;9.26;100.00;99742.44;4927253;29;20234;-79
2023/04/24 06:17:40;;;;;;;0.10;0.10;;;;;;;9.13;100.00;99767.91;4919111;29;20279;-78
2023/04/24 06:20:08;;;;;;;0.10;0.10;;;;;;;9.06;100.00;99796.84;4913634;29;20229;-78
2023/04/24 06:22:35;;;;;;;0.10;0.10;;;;;;;8.92;100.00;99810.84;4912346;29;20322;-79
2023/04/24 06:25:03;;;;;;;0.10;0.10;;;;;;;8.83;100.00;99787.06;4899271;29;20250;-78
2023/04/24 06:27:30;;;;;;;0.10;0.10;;;;;;;8.82;100.00;99795.84;4917509;29;20730;-77
2023/04/24 06:29:58;;;;;;;0.20;0.20;;;;;;;8.83;100.00;99802.88;4905988;29;20267;-78
2023/04/24 06:32:27;;;;;;;0.10;0.10;;;;;;;8.82;100.00;99814.31;4914527;29;20302;-78
2023/04/24 06:34:54;;;;;;;0.10;0.10;;;;;;;8.84;100.00;99835.41;4916232;29;20242;-78
2023/04/24 06:37:24;;;;;;;0.10;0.10;;;;;;;8.86;100.00;99845.09;4917303;29;20314;-79
2023/04/24 06:39:51;;;;;;;0.10;0.10;;;;;;;8.83;100.00;99831.88;4898940;29;20307;-78
2023/04/24 06:42:20;;;;;;;0.10;0.10;;;;;;;8.86;100.00;99816.09;4915654;29;20247;-79
2023/04/24 06:44:48;;;;;;;0.10;0.10;;;;;;;8.91;100.00;99809.09;4917682;29;20234;-79
2023/04/24 06:47:15;;;;;;;0.10;0.10;;;;;;;8.94;100.00;99785.38;4918004;29;20238;-80
2023/04/24 06:49:43;;;;;;;0.17;0.17;;;;;;;8.86;100.00;99771.25;4909424;29;20231;-79
2023/04/24 06:52:11;;;;;;;0.10;0.10;;;;;;;8.97;100.00;99756.38;4913728;29;20243;-79
2023/04/24 06:54:38;;;;;;;0.20;0.20;;;;;;;8.99;100.00;99732.66;4918672;29;20243;-79
2023/04/24 06:57:06;;;;;;;0.10;0.10;;;;;;;9.14;100.00;99739.78;4910556;29;20227;-79
2023/04/24 06:59:33;;;;;;;0.10;0.10;;;;;;;9.37;100.00;99738.09;4902289;29;20239;-80
2023/04/24 07:02:01;;;;;;;0.10;0.10;;;;;;;9.53;100.00;99729.31;4913359;29;20275;-79
2023/04/24 07:04:29;;;;;;;0.10;0.10;;;;;;;9.57;100.00;99717.91;4915731;29;20239;-79
2023/04/24 07:06:57;;;;;;;0.10;0.10;;;;;;;9.66;100.00;99717.03;4912935;29;20235;-79
2023/04/24 07:09:25;;;;;;;0.10;0.10;;;9.50;99.90;;;9.73;100.00;99716.16;4913190;29;20247;-80
2023/04/24 07:11:53;;;;;;;0.10;0.10;;;9.60;99.90;;;9.84;100.00;99709.13;4914673;29;20240;-79
2023/04/24 07:14:21;;;;;;;0.10;0.10;;;;;;;9.78;100.00;99685.34;4901206;29;20235;-79
2023/04/24 07:16:49;;;;;;;0.10;0.10;;;9.50;99.90;;;9.71;100.00;99670.41;4915813;29;20239;-79
2023/04/24 07:19:16;;;;;;;0.10;0.10;;;;;;;9.77;100.00;99678.31;4915011;29;20306;-79
2023/04/24 07:21:44;;;;;;;0.10;0.10;;;;;;;10.14;100.00;99683.56;4907559;29;20231;-78
2023/04/24 07:24:12;;;;;;;0.10;0.10;;;;;;;10.27;100.00;99662.44;4913536;29;20230;-81
2023/04/24 07:26:40;;;;;;;0.10;0.10;;;;;;;10.30;100.00;99655.41;4915354;29;20298;-81
2023/04/24 07:29:08;;;;;;;0.10;0.10;;;;;;;10.61;100.00;99650.94;4911888;29;20228;-80
2023/04/24 07:31:35;;;;;;;0.13;0.13;;;;;;;10.70;100.00;99633.25;4914710;29;20265;-80
2023/04/24 07:34:03;;;;;;;0.10;0.10;;;;;;;10.71;100.00;99594.47;4909785;29;20234;-79
2023/04/24 07:36:32;;;;;;;0.10;0.10;;;;;;;10.94;100.00;99597.88;4909831;29;20232;-79
2023/04/24 07:38:59;;;;;;;0.10;0.10;;;;;;;10.71;100.00;99576.84;4906562;29;20259;-78
2023/04/24 07:41:27;;;;;;;0.10;0.10;;;;;;;10.61;100.00;99548.69;4911705;29;20282;-81
2023/04/24 07:43:55;;;;;;;0.10;0.10;;;;;;;10.81;100.00;99557.38;4911725;29;20243;-79
2023/04/24 07:46:23;;;;;;;0.10;0.10;;;;;;;10.83;100.00;99529.16;4896670;29;20269;-80
2023/04/24 07:48:51;;;;;;;0.10;0.10;;;;;;;11.10;100.00;99543.97;4920552;29;20275;-79
2023/04/24 07:51:38;;;;;;;0.10;0.10;;;;;;;11.06;100.00;99536.06;4888698;29;20266;-80
2023/04/24 07:54:05;;;;;;;0.10;0.10;;;;;;;11.15;100.00;99513.06;4902282;29;20290;-80
2023/04/24 07:56:33;;;;;;;0.10;0.10;;;;;;;11.51;100.00;99526.88;4916009;29;20268;-80
2023/04/24 07:59:01;;;;;;;0.20;0.20;;;;;;;12.18;100.00;99563.31;4912852;29;20282;-81
2023/04/24 08:01:28;;;;;;;0.10;0.10;;;;;;;12.18;100.00;99528.88;4914675;29;20242;-82
2023/04/24 08:03:56;;;;;;;0.10;0.10;;;;;;;11.79;100.00;99495.75;4914965;29;20231;-80
2023/04/24 08:06:25;;;;;;;0.20;0.20;;;;;;;11.68;100.00;99471.97;4892519;29;20243;-80
2023/04/24 08:08:53;;;;;;;0.20;0.20;;;;;;;11.48;100.00;99431.59;4908073;29;20568;-80
2023/04/24 08:11:20;;;;;;;0.47;0.47;;;;;;;11.37;100.00;99413.16;4914104;29;20238;-81
2023/04/24 08:13:50;;;;;;;0.10;0.10;;;;;;;11.54;100.00;99428.88;4915576;29;20726;-80
2023/04/24 08:16:18;;;;;;;0.10;0.10;;;;;;;11.52;100.00;99410.34;4914413;29;20310;-80
2023/04/24 08:18:46;;;;;;;0.30;0.30;;;;;;;11.25;100.00;99373.59;4916255;29;20247;-82
2023/04/24 08:21:16;;;;;;;0.00;0.00;;;;;;;11.44;100.00;99403.41;4894538;29;20303;-83
2023/04/24 08:23:45;;;;;;;0.10;0.10;;;;;;;11.90;100.00;99442.66;4914981;29;20307;-80
2023/04/24 08:26:13;;;;;;;0.38;0.38;;;;;;;12.46;100.00;99471.06;4914559;29;20231;-80
2023/04/24 08:28:40;;;;;;;0.10;0.10;;;;;;;12.22;100.00;99415.72;4906784;29;20249;-80
2023/04/24 08:31:08;;;;;;;0.10;0.10;;;;;;;11.82;100.00;99390.63;4917812;29;20695;-81
2023/04/24 08:33:35;;;;;;;0.10;0.10;;;;;;;11.80;100.00;99388.91;4914677;29;20243;-80
2023/04/24 08:36:05;;;;;;;0.10;0.10;;;11.50;99.90;;;11.63;100.00;99365.22;4910577;29;20246;-80
2023/04/24 08:38:33;;;;;;;0.10;0.10;;;;;;;11.62;100.00;99379.34;4910709;29;20247;-80
2023/04/24 08:41:01;;;;;;;0.10;0.10;;;11.30;99.90;;;11.44;100.00;99358.38;4909378;29;20238;-79
2023/04/24 08:43:29;;;;;;;0.00;0.00;;;;;;;11.50;100.00;99368.91;4915968;29;20246;-80
2023/04/24 08:45:59;;;;;;;0.10;0.10;;;11.40;99.90;;;11.59;100.00;99366.16;4903841;29;20243;-80
2023/04/24 08:48:27;;;;;;;0.10;0.10;;;11.30;99.90;;;11.48;100.00;99354.81;4918771;29;20270;-81
2023/04/24 08:50:58;;;;;;;0.10;0.10;;;;;;;11.42;100.00;99363.69;4913191;29;20239;-79
2023/04/24 08:53:26;;;;;;;0.10;0.10;;;11.10;99.90;;;11.20;100.00;99338.38;4913782;29;20279;-81
2023/04/24 08:55:56;;;;;;;0.10;0.10;;;10.90;99.90;;;11.02;100.00;99305.06;4919856;29;20247;-80
2023/04/24 08:58:27;;;;;;;0.10;0.10;;;10.90;99.90;;;11.11;100.00;99312.88;4921143;29;20231;-80
2023/04/24 09:00:55;;;;;;;0.10;0.10;;;10.90;99.90;;;11.03;100.00;99314.75;4924166;29;20266;-81
2023/04/24 09:03:23;;;;;;;0.10;0.10;;;;;;;11.02;100.00;99320.06;4920326;29;20249;-81
2023/04/24 09:05:52;;;;;;;0.10;0.10;;;10.60;99.90;;;11.11;100.00;99326.13;4907277;29;20238;-80
2023/04/24 09:08:20;;;;;;;0.00;0.00;;;;;;;11.19;100.00;99345.44;4907102;29;20239;-81
2023/04/24 09:10:48;;;;;;;0.10;0.10;;;;;;;11.13;100.00;99349.91;4920833;29;20246;-81
2023/04/24 09:13:20;;;;;;;0.10;0.10;;;10.80;99.90;;;11.00;100.00;99349.16;4915983;29;20578;-81
2023/04/24 09:15:47;;;;;;;0.10;0.10;;;;;;;10.96;100.00;99331.56;4902343;29;20253;-80
2023/04/24 09:18:15;;;;;;;0.10;0.10;;;;;;;11.01;100.00;99332.41;4912187;29;20680;-81
2023/04/24 09:21:06;;;;;;;0.10;0.10;;;11.30;99.90;;;11.81;100.00;99388.88;4906216;29;20275;-80
2023/04/24 09:23:34;;;;;;;0.10;0.10;;;;;;;11.85;100.00;99374.72;4907516;29;20267;-80
2023/04/24 09:26:04;;;;;;;0.10;0.10;;;11.40;99.90;;;11.61;100.00;99326.41;4918982;29;20227;-80
2023/04/24 09:28:40;;;;;;;0.10;0.10;;;11.50;99.90;;;11.78;100.00;99314.75;4913708;29;20240;-81
2023/04/24 09:31:10;;;;;;;0.10;0.10;;;;;;;11.70;100.00;99253.06;4915638;29;20242;-80
2023/04/24 09:33:37;;;;;;;0.10;0.10;;;;;;;12.15;100.00;99306.28;4919261;29;20314;-81
2023/04/24 09:36:06;;;;;;;0.63;0.63;;;;;;;12.27;100.00;99305.22;4915825;29;20940;-81
2023/04/24 09:38:38;;;;;;;0.10;0.10;;;11.90;99.90;;;12.09;100.00;99286.06;4921539;29;20243;-81
2023/04/24 09:41:07;;;;;;;0.10;0.10;;;11.90;99.90;;;12.21;100.00;99286.75;4920642;29;20231;-81
2023/04/24 09:43:35;;;;;;;0.17;0.17;;;11.90;99.90;;;11.99;100.00;99234.09;4921620;29;20302;-80
2023/04/24 09:46:09;;;;;;;0.10;0.10;;;12.60;99.90;;;11.88;100.00;99232.53;4924731;29;20267;-82
2023/04/24 09:48:37;;;;;;;0.10;0.10;;;11.60;99.90;;;11.84;100.00;99259.06;4924168;29;20234;-82
2023/04/24 09:51:11;;;;;;;0.10;0.10;;;11.40;99.90;;;11.58;100.00;99265.56;4921283;29;20326;-81
2023/04/24 09:53:41;;;;;;;0.10;0.10;;;;;;;11.41;100.00;99268.44;4923623;29;20571;-81
2023/04/24 09:56:10;;;;;;;0.13;0.13;;;11.20;99.90;;;11.36;100.00;99286.13;4908923;29;20263;-81
2023/04/24 09:58:37;;;;;;;0.20;0.20;;;;;;;11.55;100.00;99319.41;4920735;29;20302;-81
2023/04/24 10:01:05;;;;;;;0.10;0.10;;;;;;;11.49;100.00;99306.25;4922216;29;20231;-81
2023/04/24 10:03:34;;;;;;;0.10;0.10;;;11.10;99.90;;;11.20;100.00;99278.38;4910101;29;20321;-79
2023/04/24 10:06:08;;;;;;;0.10;0.10;;;10.90;99.90;;;11.05;100.00;99288.28;4918493;29;20246;-81
2023/04/24 10:08:37;;;;;;;0.10;0.10;;;10.80;99.90;;;11.07;100.00;99320.88;4924329;29;20246;-80
2023/04/24 10:11:05;;;;;;;0.10;0.10;;;;;;;11.18;100.00;99322.50;4922732;29;20254;-82
2023/04/24 10:13:33;;;;;;;0.10;0.10;;;;;;;11.15;100.00;99350.78;4902950;29;20254;-80
2023/04/24 10:16:00;;;;;;;0.08;0.08;;;11.40;99.90;;;11.88;100.00;99410.00;4908602;29;20759;-83
2023/04/24 10:18:32;;;;;;;0.10;0.10;;;11.60;99.90;;;11.87;100.00;99381.75;4890331;29;20294;-80
2023/04/24 10:21:00;;;;;;;0.10;0.10;;;11.80;99.90;;;12.04;100.00;99382.41;4906179;29;20239;-78
2023/04/24 10:23:30;;;;;;;0.10;0.10;;;11.70;99.90;;;11.95;100.00;99364.00;4890717;29;20270;-81
2023/04/24 10:25:57;;;;;;;0.10;0.10;;;;;;;11.87;100.00;99356.16;4894990;29;20239;-80
2023/04/24 10:28:25;;;;;;;0.10;0.10;;;;;;;12.11;100.00;99392.03;4897783;29;20306;-79
2023/04/24 10:30:55;;;;;;;0.10;0.10;;;12.10;99.90;;;12.46;100.00;99370.31;4920417;29;20278;-80
2023/04/24 10:33:23;;;;;;;0.10;0.10;;;12.50;99.90;;;12.79;100.00;99376.84;4902399;29;20261;-80
2023/04/24 10:35:51;;;;;;;0.00;0.00;;;12.40;99.90;;;12.70;100.00;99369.03;4881650;29;20243;-81
2023/04/24 10:38:25;;;;;;;0.10;0.10;;;12.20;99.90;;;12.55;100.00;99363.97;4894753;29;20259;-80
2023/04/24 10:40:57;;;;;;;0.30;0.30;;;;;;;12.22;100.00;99329.13;4913061;29;20231;-78
2023/04/24 10:43:24;;;;;;;0.17;0.17;;;;;;;12.46;100.00;99342.00;4915777;29;20326;-78
2023/04/24 10:46:03;;;;;;;0.10;0.10;;;12.00;99.90;;;12.18;100.00;99292.97;4898404;29;20239;-76
2023/04/24 10:48:32;;;;;;;0.00;0.00;;;;;;;12.37;100.00;99304.16;4887123;29;20320;-79
2023/04/24 10:50:59;;;;;;;0.00;0.00;;;;;;;11.99;100.00;99273.84;4903007;29;20226;-78
2023/04/24 10:53:30;;;;;;;0.30;0.30;;;12.20;99.90;;;12.59;100.00;99342.69;4898612;29;20239;-79
2023/04/24 10:56:05;;;;;;;0.10;0.10;;;12.50;99.90;;;12.90;100.00;99351.00;4913126;29;20259;-77
2023/04/24 10:58:58;;;;;;;0.10;0.10;;;12.70;99.90;;;12.94;100.00;99351.81;4884112;29;20354;-78
2023/04/24 11:01:30;;;;;;;0.10;0.10;;;12.70;99.90;;;13.11;100.00;99316.13;4915553;29;20250;-77
2023/04/24 11:04:03;;;;;;;0.30;0.30;;;12.80;99.90;;;13.04;100.00;99295.03;4915750;29;20242;-78
2023/04/24 11:06:37;;;;;;;0.10;0.10;;;12.30;99.90;;;13.51;100.00;99330.44;4883176;29;20692;-78
2023/04/24 11:09:08;;;;;;;0.32;0.32;;;13.00;99.90;;;13.25;100.00;99299.09;4914284;29;20237;-78
2023/04/24 11:11:37;;;;;;;0.40;0.30;;;12.60;99.90;;;12.84;100.00;99223.75;4914315;29;20612;-79
2023/04/24 11:14:06;;;;;;;0.00;0.00;;;12.80;99.90;;;13.05;100.00;99225.13;4910534;29;20257;-78
2023/04/24 11:16:54;;;;;;;0.00;0.00;;;13.10;99.90;;;13.42;100.00;99257.13;4907951;29;20235;-77